Time;durP1;ratioP1;P1;durP2;ratioP2;P2;SDS_P1;SDS_P2;PMS_P1;PMS_P2;Temp;Humidity;BMP_temperature;BMP_pressure;BME280_temperature;BME280_humidity;BME280_pressure;Samples;Min_cycle;Max_cycle;Signal;HPM_P1;HPM_P2
2021/01/06 00:02:03;;;;;;;;;;;;;;;19.96;65.23;101092.84;5075122;28;1432;-60
2021/01/06 00:04:28;;;;;;;;;;;;;;;19.96;65.18;101082.13;5066936;28;1447;-59
2021/01/06 00:06:54;;;;;;;;;;;;;;;19.97;64.28;101095.38;5075367;28;1408;-66
2021/01/06 00:09:19;;;;;;;;;;;;;;;20.03;64.60;101105.59;5074158;28;1511;-59
2021/01/06 00:11:44;;;;;;;;;;;;;;;19.98;64.74;101107.00;5075044;28;1376;-59
2021/01/06 00:14:13;;;;;;;;;;;;;;;19.99;64.46;101109.50;5074770;28;1996;-66
2021/01/06 00:16:38;;;;;;;;;;;;;;;19.98;63.67;101113.19;5072769;28;1328;-66
2021/01/06 00:19:04;;;;;;;;;;;;;;;19.95;64.23;101115.28;5074827;28;1375;-66
2021/01/06 00:21:30;;;;;;;;;;;;;;;19.90;63.50;101094.22;5057377;28;1450;-63
2021/01/06 00:23:55;;;;;;;;;;;;;;;19.92;63.40;101112.88;5073255;28;1422;-66
2021/01/06 00:26:21;;;;;;;;;;;;;;;19.86;64.20;101117.78;5074221;28;1496;-64
2021/01/06 00:28:46;;;;;;;;;;;;;;;19.86;63.66;101120.47;5074944;28;1400;-65
2021/01/06 00:31:12;;;;;;;;;;;;;;;19.86;63.46;101127.69;5074501;28;1498;-65
2021/01/06 00:33:37;;;;;;;;;;;;;;;19.83;63.22;101119.88;5074293;28;1878;-65
2021/01/06 00:36:20;;;;;;;;;;;;;;;19.80;63.15;101109.44;5072818;28;1241;-65
2021/01/06 00:38:45;;;;;;;;;;;;;;;19.81;63.17;101116.47;5069423;28;1430;-66
2021/01/06 00:41:10;;;;;;;;;;;;;;;19.78;63.13;101114.94;5074259;28;1447;-59
2021/01/06 00:43:36;;;;;;;;;;;;;;;19.76;62.80;101105.31;5055208;28;1372;-66
2021/01/06 00:46:01;;;;;;;;;;;;;;;19.76;62.59;101106.16;5074381;28;1383;-59
2021/01/06 00:48:26;;;;;;;;;;;;;;;19.77;62.57;101121.25;5074215;28;1254;-66
2021/01/06 00:50:52;;;;;;;;;;;;;;;19.73;62.65;101109.09;5074006;28;1403;-66
2021/01/06 00:53:22;;;;;;;;;;;;;;;19.75;62.80;101111.66;5074331;28;1878;-60
2021/01/06 00:55:47;;;;;;;;;;;;;;;19.72;62.65;101110.09;5074343;28;1474;-60
2021/01/06 00:58:12;;;;;;;;;;;;;;;19.72;62.54;101106.56;5074071;28;1376;-59
2021/01/06 01:00:38;;;;;;;;;;;;;;;19.72;62.42;101103.88;5074078;28;1447;-60
2021/01/06 01:03:03;;;;;;;;;;;;;;;19.69;62.43;101113.00;5074039;28;1369;-59
2021/01/06 01:05:30;;;;;;;;;;;;;;;19.66;62.03;101108.75;5069537;28;1407;-59
2021/01/06 01:07:56;;;;;;;;;;;;;;;19.73;62.26;101114.47;5073775;28;1602;-59
2021/01/06 01:10:33;;;;;;;;;;;;;;;19.68;62.51;101111.31;5054701;28;1393;-65
2021/01/06 01:12:59;;;;;;;;;;;;;;;19.70;61.79;101120.06;5053033;28;1969;-65
2021/01/06 01:15:26;;;;;;;;;;;;;;;19.66;62.04;101107.91;5072133;28;1407;-64
2021/01/06 01:17:52;;;;;;;;;;;;;;;19.68;61.59;101112.16;5073895;28;1730;-65
2021/01/06 01:20:18;;;;;;;;;;;;;;;19.66;61.89;101113.28;5073794;28;1507;-65
2021/01/06 01:22:43;;;;;;;;;;;;;;;19.63;62.02;101097.41;5074010;28;1459;-60
2021/01/06 01:25:09;;;;;;;;;;;;;;;19.65;61.66;101112.41;5073858;28;1364;-64
2021/01/06 01:27:34;;;;;;;;;;;;;;;19.64;61.46;101115.22;5073701;28;1304;-65
2021/01/06 01:30:00;;;;;;;;;;;;;;;19.61;61.22;101096.69;5056147;28;1376;-60
2021/01/06 01:32:25;;;;;;;;;;;;;;;19.65;61.12;101103.50;5073809;28;1396;-65
2021/01/06 01:34:50;;;;;;;;;;;;;;;19.62;61.38;101110.00;5073811;28;1889;-66
2021/01/06 01:37:16;;;;;;;;;;;;;;;19.60;61.37;101113.78;5073547;28;1478;-65
2021/01/06 01:39:41;;;;;;;;;;;;;;;19.60;61.09;101111.13;5073548;28;1435;-65
2021/01/06 01:42:07;;;;;;;;;;;;;;;19.55;60.88;101105.28;5073727;28;1446;-60
2021/01/06 01:44:32;;;;;;;;;;;;;;;19.54;61.03;101119.69;5073898;28;1396;-59
2021/01/06 01:47:15;;;;;;;;;;;;;;;19.55;60.76;101132.09;5073795;28;1439;-65
2021/01/06 01:49:47;;;;;;;;;;;;;;;19.54;60.68;101127.72;5073588;28;1538;-60
2021/01/06 01:52:51;;;;;;;;;;;;;;;19.55;60.59;101137.47;5073427;28;1573;-60
2021/01/06 01:55:19;;;;;;;;;;;;;;;19.52;60.52;101135.03;5030615;28;1401;-59
2021/01/06 01:57:47;;;;;;;;;;;;;;;19.48;60.24;101132.63;5031961;28;1401;-59
2021/01/06 02:00:14;;;;;;;;;;;;;;;19.46;60.14;101123.84;5051940;28;1505;-65
2021/01/06 02:02:52;;;;;;;;;;;;;;;19.49;60.26;101122.75;5072978;28;1475;-65
2021/01/06 02:05:19;;;;;;;;;;;;;;;19.47;60.04;101119.34;5077312;28;1344;-65
2021/01/06 02:08:05;;;;;;;;;;;;;;;19.47;60.01;101119.34;5077332;28;1513;-66
2021/01/06 02:10:32;;;;;;;;;;;;;;;19.47;60.01;101111.28;5062276;28;1884;-65
2021/01/06 02:13:16;;;;;;;;;;;;;;;19.47;60.05;101108.59;5077446;28;1914;-65
2021/01/06 02:15:45;;;;;;;;;;;;;;;19.45;59.90;101123.97;5077059;28;1475;-65
2021/01/06 02:18:11;;;;;;;;;;;;;;;19.44;59.42;101115.09;5059396;28;1411;-59
2021/01/06 02:20:36;;;;;;;;;;;;;;;19.45;59.50;101115.94;5077391;28;1700;-65
2021/01/06 02:23:02;;;;;;;;;;;;;;;19.43;59.83;101110.69;5076938;28;1411;-65
2021/01/06 02:25:28;;;;;;;;;;;;;;;19.45;59.58;101111.41;5076859;28;1432;-60
2021/01/06 02:27:56;;;;;;;;;;;;;;;19.41;59.59;101120.69;5071850;28;1577;-60
2021/01/06 02:30:21;;;;;;;;;;;;;;;19.40;59.65;101110.97;5070618;28;1565;-65
2021/01/06 02:32:48;;;;;;;;;;;;;;;19.40;59.65;101110.13;5064339;28;1458;-59
2021/01/06 02:35:13;;;;;;;;;;;;;;;19.41;59.64;101109.97;5074892;28;1882;-60
2021/01/06 02:37:40;;;;;;;;;;;;;;;19.45;60.03;101115.94;5076726;28;1373;-59
2021/01/06 02:40:07;;;;;;;;;;;;;;;19.44;59.62;101107.03;5076424;28;1487;-66
2021/01/06 02:42:33;;;;;;;;;;;;;;;19.41;60.16;101109.97;5077080;28;1384;-66
2021/01/06 02:44:58;;;;;;;;;;;;;;;19.42;60.21;101125.09;5076799;28;1570;-65
2021/01/06 02:47:24;;;;;;;;;;;;;;;19.41;60.14;101120.69;5076519;28;1458;-65
2021/01/06 02:49:50;;;;;;;;;;;;;;;19.41;59.89;101135.94;5076924;28;1438;-60
2021/01/06 02:52:17;;;;;;;;;;;;;;;19.42;60.30;101133.16;5076690;28;1419;-65
2021/01/06 02:54:45;;;;;;;;;;;;;;;19.38;60.18;101139.75;5075991;28;1886;-66
2021/01/06 02:57:12;;;;;;;;;;;;;;;19.37;60.27;101138.03;5075833;28;1372;-66
2021/01/06 02:59:41;;;;;;;;;;;;;;;19.38;60.11;101142.44;5075070;28;1427;-59
2021/01/06 03:02:07;;;;;;;;;;;;;;;19.33;60.36;101128.53;5065940;23;1989;-47
2021/01/06 03:04:36;;;;;;;;;;;;;;;19.34;60.23;101126.69;5053727;28;1281;-47
2021/01/06 03:07:03;;;;;;;;;;;;;;;19.35;60.63;101121.22;5055192;28;1385;-45
2021/01/06 03:09:32;;;;;;;;;;;;;;;19.38;60.56;101118.28;5053622;28;1343;-46
2021/01/06 03:11:59;;;;;;;;;;;;;;;19.39;60.89;101116.47;5086230;22;3517;-59
2021/01/06 03:14:27;;;;;;;;;;;;;;;19.38;60.30;101110.25;5091980;28;1910;-60
2021/01/06 03:16:52;;;;;;;;;;;;;;;19.07;62.58;101128.88;5093980;28;1225;-66
2021/01/06 03:19:19;;;;;;;;;;;;;;;18.87;63.28;101130.53;5090422;28;1236;-60
2021/01/06 03:21:45;;;;;;;;;;;;;;;18.79;63.42;101118.72;5076144;28;1214;-59
2021/01/06 03:24:12;;;;;;;;;;;;;;;18.71;63.69;101126.53;5075534;28;1179;-59
2021/01/06 03:26:38;;;;;;;;;;;;;;;18.69;63.62;101119.47;5075739;28;1257;-59
2021/01/06 03:29:04;;;;;;;;;;;;;;;18.68;64.02;101133.84;5072069;28;1496;-60
2021/01/06 03:31:35;;;;;;;;;;;;;;;18.63;64.38;101130.69;5075879;28;1202;-60
2021/01/06 03:34:03;;;;;;;;;;;;;;;18.65;64.09;101126.03;5075643;28;1972;-60
2021/01/06 03:36:32;;;;;;;;;;;;;;;18.64;64.58;101121.69;5075359;28;1193;-66
2021/01/06 03:39:00;;;;;;;;;;;;;;;18.61;64.58;101137.97;5075341;28;1326;-59
2021/01/06 03:41:27;;;;;;;;;;;;;;;18.59;64.80;101126.53;5075406;28;1186;-65
2021/01/06 03:43:55;;;;;;;;;;;;;;;18.54;64.93;101134.09;5094350;28;1147;-60
2021/01/06 03:46:26;;;;;;;;;;;;;;;18.54;64.34;101119.84;5094024;28;1233;-60
2021/01/06 03:49:06;;;;;;;;;;;;;;;18.53;64.54;101129.72;5094215;28;1232;-64
2021/01/06 03:51:41;;;;;;;;;;;;;;;18.53;64.75;101132.41;5093928;28;1185;-59
2021/01/06 03:54:21;;;;;;;;;;;;;;;18.53;64.94;101123.53;5087850;28;1947;-65
2021/01/06 03:56:47;;;;;;;;;;;;;;;18.52;65.72;101117.28;5085037;28;1737;-58
2021/01/06 03:59:18;;;;;;;;;;;;;;;18.59;65.63;101126.53;5088246;28;1559;-59
2021/01/06 04:02:02;;;;;;;;;;;;;;;18.59;66.48;101129.22;5096332;28;1349;-59
2021/01/06 04:04:30;;;;;;;;;;;;;;;18.57;66.73;101131.16;5069515;28;1052;-61
2021/01/06 04:06:57;;;;;;;;;;;;;;;18.55;66.68;101133.13;5056079;28;801;-59
2021/01/06 04:09:58;;;;;;;;;;;;;;;18.52;66.83;101137.88;5056140;28;791;-59
2021/01/06 04:12:23;;;;;;;;;;;;;;;18.49;67.18;101134.47;5014226;28;1207;-60
2021/01/06 04:14:48;;;;;;;;;;;;;;;18.55;66.70;101127.78;5047147;28;1910;-59
2021/01/06 04:17:14;;;;;;;;;;;;;;;18.52;66.87;101124.47;5055896;28;781;-66
2021/01/06 04:19:50;;;;;;;;;;;;;;;18.49;67.27;101133.63;5055824;28;949;-59
2021/01/06 04:22:20;;;;;;;;;;;;;;;18.48;67.26;101118.50;5055569;28;944;-59
2021/01/06 04:24:46;;;;;;;;;;;;;;;18.46;67.17;101133.84;5055284;28;813;-66
2021/01/06 04:27:15;;;;;;;;;;;;;;;18.40;67.62;101120.97;5065739;28;1635;-66
2021/01/06 04:29:41;;;;;;;;;;;;;;;18.38;67.52;101120.22;5063930;28;741;-66
2021/01/06 04:32:06;;;;;;;;;;;;;;;18.38;67.29;101136.28;5070299;28;809;-66
2021/01/06 04:34:31;;;;;;;;;;;;;;;18.37;67.27;101126.56;5055322;28;1946;-59
2021/01/06 04:36:57;;;;;;;;;;;;;;;18.37;67.86;101129.25;5037765;28;837;-60
2021/01/06 04:39:22;;;;;;;;;;;;;;;18.38;67.71;101121.09;5055490;28;823;-66
2021/01/06 04:41:54;;;;;;;;;;;;;;;18.39;68.02;101117.44;5055276;28;1164;-65
2021/01/06 04:44:25;;;;;;;;;;;;;;;18.41;68.29;101118.16;5064975;28;1075;-59
2021/01/06 04:47:06;;;;;;;;;;;;;;;18.39;69.04;101120.13;5066302;28;1243;-66
2021/01/06 04:49:50;;;;;;;;;;;;;;;18.37;69.16;101123.91;5060511;28;1242;-59
2021/01/06 04:52:21;;;;;;;;;;;;;;;18.44;69.08;101114.38;5037510;28;1154;-60
2021/01/06 04:55:01;;;;;;;;;;;;;;;18.36;69.13;101100.75;5055258;28;1886;-62
2021/01/06 04:57:47;;;;;;;;;;;;;;;18.33;68.27;101114.41;5055092;28;824;-62
2021/01/06 05:00:25;;;;;;;;;;;;;;;18.35;68.15;101107.09;5055344;28;784;-59
2021/01/06 05:02:53;;;;;;;;;;;;;;;18.31;68.48;101101.13;5037342;28;1349;-67
2021/01/06 05:05:37;;;;;;;;;;;;;;;18.26;68.79;101106.88;5074233;28;1318;-61
2021/01/06 05:08:11;;;;;;;;;;;;;;;18.34;67.96;101116.09;5057351;28;1380;-59
2021/01/06 05:10:48;;;;;;;;;;;;;;;18.35;68.00;101089.22;5074767;28;1144;-66
2021/01/06 05:13:22;;;;;;;;;;;;;;;18.30;67.67;101091.38;5074835;28;1970;-60
2021/01/06 05:15:54;;;;;;;;;;;;;;;18.42;67.77;101100.25;5074510;28;1330;-59
2021/01/06 05:18:20;;;;;;;;;;;;;;;18.44;67.54;101101.88;5043985;28;1568;-59
2021/01/06 05:20:45;;;;;;;;;;;;;;;18.42;67.23;101085.06;5050568;28;1458;-59
2021/01/06 05:23:16;;;;;;;;;;;;;;;18.47;67.87;101100.75;5061131;28;1696;-66
2021/01/06 05:25:41;;;;;;;;;;;;;;;18.45;68.07;101105.38;5062528;28;1493;-67
2021/01/06 05:28:10;;;;;;;;;;;;;;;18.43;68.22;101113.53;5065213;28;1524;-65
2021/01/06 05:30:36;;;;;;;;;;;;;;;18.44;67.85;101103.66;5063419;28;1433;-65
2021/01/06 05:33:06;;;;;;;;;;;;;;;18.43;68.54;101100.16;5070821;28;1886;-65
2021/01/06 05:35:38;;;;;;;;;;;;;;;18.44;68.59;101109.03;5073626;28;1358;-59
2021/01/06 05:38:03;;;;;;;;;;;;;;;18.40;68.23;101097.72;5064373;28;1600;-65
2021/01/06 05:40:29;;;;;;;;;;;;;;;18.39;68.00;101095.19;5062711;28;1346;-59
2021/01/06 05:42:59;;;;;;;;;;;;;;;18.40;67.99;101100.41;5079445;28;1291;-65
2021/01/06 05:45:26;;;;;;;;;;;;;;;18.36;67.87;101090.06;5087262;28;1068;-65
2021/01/06 05:47:52;;;;;;;;;;;;;;;18.38;68.34;101107.72;5068347;28;1449;-65
2021/01/06 05:50:22;;;;;;;;;;;;;;;18.42;67.91;101094.91;5064241;28;1648;-59
2021/01/06 05:53:02;;;;;;;;;;;;;;;18.39;68.40;101101.38;5068484;28;1588;-66
2021/01/06 05:55:29;;;;;;;;;;;;;;;18.36;68.40;101095.41;5068638;28;1593;-59
2021/01/06 05:57:58;;;;;;;;;;;;;;;18.32;68.65;101093.94;5068570;28;1560;-59
2021/01/06 06:00:30;;;;;;;;;;;;;;;18.29;68.18;101090.53;5047091;28;1493;-67
2021/01/06 06:03:14;;;;;;;;;;;;;;;18.25;68.81;101099.78;5067228;28;1398;-67
2021/01/06 06:05:54;;;;;;;;;;;;;;;18.22;68.26;101100.06;5068692;28;1310;-67
2021/01/06 06:08:31;;;;;;;;;;;;;;;18.18;68.80;101093.22;5064177;28;1426;-67
2021/01/06 06:11:10;;;;;;;;;;;;;;;18.19;68.69;101100.28;5060528;28;1414;-66
2021/01/06 06:13:54;;;;;;;;;;;;;;;18.15;67.64;101103.34;5068052;28;1905;-65
2021/01/06 06:16:19;;;;;;;;;;;;;;;18.16;67.86;101097.00;5064518;28;1289;-59
2021/01/06 06:18:44;;;;;;;;;;;;;;;18.14;68.48;101097.13;5063212;28;1375;-59
2021/01/06 06:21:33;;;;;;;;;;;;;;;18.19;68.19;101104.81;5062331;28;1373;-59
2021/01/06 06:24:11;;;;;;;;;;;;;;;18.17;68.65;101101.41;5062359;28;1576;-66
2021/01/06 06:26:55;;;;;;;;;;;;;;;18.17;68.44;101112.94;5064435;28;1567;-68
2021/01/06 06:29:23;;;;;;;;;;;;;;;18.07;67.96;101128.03;5048859;28;11024;-68
2021/01/06 06:31:53;;;;;;;;;;;;;;;18.03;67.47;101132.78;5058680;28;10879;-64
2021/01/06 06:34:30;;;;;;;;;;;;;;;17.71;65.77;101132.56;5064048;28;10670;-59
2021/01/06 06:37:04;;;;;;;;;;;;;;;17.75;67.64;101133.19;5065220;28;1473;-67
2021/01/06 06:39:31;;;;;;;;;;;;;;;17.45;64.60;101130.06;5061948;28;1434;-59
2021/01/06 06:42:15;;;;;;;;;;;;;;;15.97;62.75;101133.69;5059642;28;1446;-58
2021/01/06 06:44:49;;;;;;;;;;;;;;;13.77;59.07;101158.44;5063424;28;1430;-61
2021/01/06 06:47:15;;;;;;;;;;;;;;;13.68;57.65;101155.38;5062160;28;1512;-60
2021/01/06 06:49:47;;;;;;;;;;;;;;;13.61;57.87;101162.03;5064944;28;1289;-57
2021/01/06 06:52:18;;;;;;;;;;;;;;;13.69;57.56;101148.28;5062974;28;1540;-59
2021/01/06 06:54:49;;;;;;;;;;;;;;;13.46;54.34;101155.78;5058856;28;10882;-64
2021/01/06 06:57:14;;;;;;;;;;;;;;;13.38;55.95;101158.03;5060361;28;1549;-58
2021/01/06 06:59:45;;;;;;;;;;;;;;;13.57;55.56;101167.59;5059530;28;1514;-56
2021/01/06 07:02:11;;;;;;;;;;;;;;;15.00;58.34;101137.50;5059801;28;11069;-57
2021/01/06 07:04:40;;;;;;;;;;;;;;;16.14;60.20;101133.34;5067158;28;1432;-60
2021/01/06 07:07:06;;;;;;;;;;;;;;;16.81;59.39;101133.06;5061476;28;1470;-55
2021/01/06 07:09:33;;;;;;;;;;;;;;;17.07;58.39;101133.78;5056624;28;1522;-58
2021/01/06 07:12:03;;;;;;;;;;;;;;;17.10;56.83;101144.25;5063896;28;1490;-63
2021/01/06 07:14:31;;;;;;;;;;;;;;;17.35;57.40;101150.44;5044948;28;1906;-57
2021/01/06 07:17:02;;;;;;;;;;;;;;;17.50;56.55;101141.25;5058626;28;1332;-54
2021/01/06 07:19:29;;;;;;;;;;;;;;;17.62;57.57;101152.81;5057825;28;1496;-54
2021/01/06 07:22:01;;;;;;;;;;;;;;;17.66;57.95;101140.94;5060390;28;1478;-57
2021/01/06 07:24:27;;;;;;;;;;;;;;;17.74;57.95;101148.38;5026323;28;10986;-57
2021/01/06 07:26:54;;;;;;;;;;;;;;;17.98;58.09;101152.81;5049116;28;1290;-58
2021/01/06 07:29:21;;;;;;;;;;;;;;;18.24;57.60;101135.59;5058751;28;1595;-57
2021/01/06 07:31:52;;;;;;;;;;;;;;;18.51;58.47;101129.00;5061316;28;1486;-57
2021/01/06 07:34:23;;;;;;;;;;;;;;;18.89;57.71;101130.41;5063819;28;1933;-61
2021/01/06 07:36:53;;;;;;;;;;;;;;;19.03;59.16;101121.25;5060238;28;1396;-61
2021/01/06 07:39:23;;;;;;;;;;;;;;;19.26;60.09;101132.75;5060477;28;1499;-59
2021/01/06 07:41:49;;;;;;;;;;;;;;;19.43;61.05;101129.47;5059784;28;1455;-58
2021/01/06 07:44:23;;;;;;;;;;;;;;;19.41;62.01;101139.47;5058741;28;1524;-59
2021/01/06 07:47:05;;;;;;;;;;;;;;;19.46;61.62;101137.25;5060339;28;1132;-59
2021/01/06 07:49:50;;;;;;;;;;;;;;;19.74;60.51;101131.44;5061339;28;1404;-60
2021/01/06 07:52:27;;;;;;;;;;;;;;;19.73;60.83;101148.50;5054791;28;1232;-58
2021/01/06 07:54:57;;;;;;;;;;;;;;;19.75;61.22;101147.38;5061059;28;1882;-59
2021/01/06 07:57:32;;;;;;;;;;;;;;;19.80;60.48;101147.84;5054967;28;1486;-60
2021/01/06 08:00:00;;;;;;;;;;;;;;;19.89;60.92;101148.88;5059284;28;1765;-61
2021/01/06 08:02:46;;;;;;;;;;;;;;;19.93;61.35;101146.78;5062481;28;1519;-65
2021/01/06 08:05:25;;;;;;;;;;;;;;;19.90;61.34;101150.59;5053331;28;1471;-62
2021/01/06 08:08:14;;;;;;;;;;;;;;;19.91;60.19;101127.28;5056089;28;1085;-60
2021/01/06 08:10:41;;;;;;;;;;;;;;;19.92;58.53;101145.09;5047574;28;1638;-59
2021/01/06 08:13:13;;;;;;;;;;;;;;;19.93;57.76;101147.63;5061029;28;1906;-59
2021/01/06 08:15:38;;;;;;;;;;;;;;;20.00;58.91;101153.34;5063824;28;1534;-59
2021/01/06 08:18:22;;;;;;;;;;;;;;;19.98;59.18;101136.50;5059002;28;1416;-58
2021/01/06 08:20:50;;;;;;;;;;;;;;;19.96;58.80;101152.75;5059167;28;1519;-58
2021/01/06 08:23:16;;;;;;;;;;;;;;;19.97;59.21;101153.59;5060392;28;1570;-59
2021/01/06 08:25:52;;;;;;;;;;;;;;;20.03;59.59;101155.75;5047797;28;1335;-59
2021/01/06 08:28:22;;;;;;;;;;;;;;;19.94;59.85;101153.88;5058659;28;1507;-59
2021/01/06 08:30:47;;;;;;;;;;;;;;;19.88;59.79;101165.13;5058640;28;1474;-59
2021/01/06 08:33:15;;;;;;;;;;;;;;;19.80;60.21;101150.53;5055564;28;1921;-58
2021/01/06 08:35:41;;;;;;;;;;;;;;;19.80;60.48;101168.47;5057577;28;1444;-59
2021/01/06 08:38:25;;;;;;;;;;;;;;;19.76;60.60;101173.25;5056610;28;1132;-59
2021/01/06 08:40:50;;;;;;;;;;;;;;;19.68;60.86;101159.59;5056093;28;1400;-60
2021/01/06 08:43:16;;;;;;;;;;;;;;;19.64;61.09;101166.22;5055848;28;1586;-57
2021/01/06 08:45:51;;;;;;;;;;;;;;;19.59;61.20;101166.56;5053339;28;1463;-56
2021/01/06 08:48:29;;;;;;;;;;;;;;;19.56;61.48;101179.41;5057243;28;1599;-59
2021/01/06 08:50:57;;;;;;;;;;;;;;;19.46;61.46;101161.41;5057367;28;1503;-59
2021/01/06 08:53:33;;;;;;;;;;;;;;;19.43;61.73;101175.06;5054078;28;1890;-58
2021/01/06 08:56:00;;;;;;;;;;;;;;;19.43;61.84;101161.66;5055226;28;1541;-58
2021/01/06 08:58:39;;;;;;;;;;;;;;;19.41;61.94;101158.25;5059922;28;1388;-58
2021/01/06 09:01:04;;;;;;;;;;;;;;;19.46;61.89;101150.69;5054312;28;1431;-57
2021/01/06 09:03:30;;;;;;;;;;;;;;;19.42;61.87;101151.06;5057991;28;1552;-59
2021/01/06 09:06:03;;;;;;;;;;;;;;;19.52;61.64;101137.72;5055299;28;1409;-59
2021/01/06 09:08:37;;;;;;;;;;;;;;;19.62;61.33;101134.13;5053050;28;1143;-59
2021/01/06 09:11:28;;;;;;;;;;;;;;;19.74;61.54;101132.28;5056773;28;1478;-68
2021/01/06 09:13:57;;;;;;;;;;;;;;;19.85;61.09;101129.50;5050401;28;1906;-59
2021/01/06 09:16:35;;;;;;;;;;;;;;;19.86;60.94;101120.47;5053318;28;1506;-59
2021/01/06 09:19:00;;;;;;;;;;;;;;;19.96;60.54;101117.84;5052060;28;1498;-59
2021/01/06 09:21:32;;;;;;;;;;;;;;;20.00;60.99;101115.75;5057642;28;1455;-58
2021/01/06 09:24:16;;;;;;;;;;;;;;;20.19;60.93;101131.97;5055004;28;1588;-58
2021/01/06 09:26:44;;;;;;;;;;;;;;;20.17;60.90;101117.78;5054026;28;1447;-58
2021/01/06 09:29:15;;;;;;;;;;;;;;;20.15;61.09;101122.44;5057591;28;1510;-59
2021/01/06 09:31:45;;;;;;;;;;;;;;;20.11;60.72;101123.69;5056190;28;1098;-57
2021/01/06 09:34:12;;;;;;;;;;;;;;;20.11;61.51;101101.38;5056358;28;1917;-57
2021/01/06 09:36:37;;;;;;;;;;;;;;;20.13;61.23;101111.00;5059922;28;1537;-58
2021/01/06 09:39:06;;;;;;;;;;;;;;;20.13;61.77;101104.78;5041230;28;1503;-58
2021/01/06 09:41:32;;;;;;;;;;;;;;;20.11;62.86;101094.16;5056431;28;1459;-59
2021/01/06 09:43:58;;;;;;;;;;;;;;;20.09;62.88;101103.34;5054480;28;1383;-56
2021/01/06 09:46:29;;;;;;;;;;;;;;;20.12;63.40;101103.94;5057257;28;1436;-56
2021/01/06 09:48:57;;;;;;;;;;;;;;;20.18;63.24;101079.22;5054408;28;1312;-59
2021/01/06 09:51:23;;;;;;;;;;;;;;;20.16;63.78;101067.78;5062766;28;1384;-55
2021/01/06 09:53:51;;;;;;;;;;;;;;;20.17;63.92;101093.63;5055741;28;1955;-55
2021/01/06 09:56:19;;;;;;;;;;;;;;;20.14;63.22;101075.13;5055586;28;1484;-55
2021/01/06 09:58:46;;;;;;;;;;;;;;;20.12;64.25;101070.88;5055859;28;1573;-56
2021/01/06 10:01:30;;;;;;;;;;;;;;;20.09;64.51;101049.66;5059764;28;1649;-54
2021/01/06 10:03:59;;;;;;;;;;;;;;;20.10;63.98;101064.78;5055541;28;1514;-56
2021/01/06 10:06:37;;;;;;;;;;;;;;;20.03;64.48;101061.78;5056174;28;1467;-56
2021/01/06 10:09:06;;;;;;;;;;;;;;;20.04;64.30;101058.13;5059706;28;1455;-55
2021/01/06 10:11:35;;;;;;;;;;;;;;;20.05;64.05;101051.75;5056108;28;1436;-54
2021/01/06 10:14:00;;;;;;;;;;;;;;;20.05;63.52;101043.69;5058636;28;1913;-55
2021/01/06 10:16:31;;;;;;;;;;;;;;;20.03;63.81;101041.19;5059427;28;1440;-56
2021/01/06 10:19:02;;;;;;;;;;;;;;;20.05;64.42;101027.59;5056577;28;1530;-56
2021/01/06 10:21:46;;;;;;;;;;;;;;;20.05;63.97;101032.97;5057175;28;1517;-55
2021/01/06 10:24:17;;;;;;;;;;;;;;;20.11;63.52;101024.34;5058810;28;1502;-48
2021/01/06 10:26:43;;;;;;;;;;;;;;;20.10;63.75;101030.72;5059767;28;1528;-50
2021/01/06 10:29:21;;;;;;;;;;;;;;;20.07;63.95;101014.88;5057743;28;1364;-53
2021/01/06 10:32:05;;;;;;;;;;;;;;;20.09;64.36;101012.91;5059975;28;1369;-56
2021/01/06 10:34:45;;;;;;;;;;;;;;;20.09;64.16;101012.91;5057357;28;1951;-56
2021/01/06 10:37:19;;;;;;;;;;;;;;;20.16;64.79;101003.34;5059484;28;1379;-58
2021/01/06 10:39:46;;;;;;;;;;;;;;;20.20;64.08;100999.38;5064966;28;1439;-58
2021/01/06 10:42:18;;;;;;;;;;;;;;;20.28;63.44;101006.75;5060203;28;1653;-54
2021/01/06 10:45:06;;;;;;;;;;;;;;;20.35;63.90;101002.53;5059199;28;1415;-50
2021/01/06 10:47:32;;;;;;;;;;;;;;;20.40;63.88;101012.84;5061340;28;1479;-59
2021/01/06 10:50:02;;;;;;;;;;;;;;;20.48;63.51;101015.69;5063878;28;1459;-59
2021/01/06 10:52:27;;;;;;;;;;;;;;;20.44;63.43;101003.53;5044100;28;1327;-61
2021/01/06 10:55:08;;;;;;;;;;;;;;;20.41;63.56;101006.47;5062946;28;1890;-59
2021/01/06 10:57:37;;;;;;;;;;;;;;;20.33;63.86;101001.81;5044733;28;1547;-59
2021/01/06 11:00:22;;;;;;;;;;;;;;;20.35;62.35;101004.34;5062542;28;1388;-58
2021/01/06 11:02:50;;;;;;;;;;;;;;;20.27;63.19;101000.53;5066341;28;1637;-58
2021/01/06 11:05:20;;;;;;;;;;;;;;;20.18;63.99;100996.00;5064520;28;1879;-58
2021/01/06 11:07:56;;;;;;;;;;;;;;;20.13;63.68;100998.22;5066578;28;1592;-58
2021/01/06 11:10:39;;;;;;;;;;;;;;;20.09;63.75;100987.91;5068367;28;1806;-58
2021/01/06 11:13:14;;;;;;;;;;;;;;;20.05;64.23;100990.00;5064989;28;1834;-59
2021/01/06 11:15:39;;;;;;;;;;;;;;;20.01;64.00;100993.94;5071715;28;1688;-58
2021/01/06 11:18:30;;;;;;;;;;;;;;;19.97;63.92;100997.91;5066473;28;1802;-59
2021/01/06 11:21:13;;;;;;;;;;;;;;;19.95;64.12;101005.25;5078938;28;1651;-59
2021/01/06 11:23:43;;;;;;;;;;;;;;;19.90;64.14;100994.06;5067549;28;1319;-58
2021/01/06 11:26:20;;;;;;;;;;;;;;;19.88;63.94;100988.84;5070364;28;1401;-59
2021/01/06 11:28:55;;;;;;;;;;;;;;;19.88;64.34;100985.31;5069217;28;1261;-58
2021/01/06 11:31:25;;;;;;;;;;;;;;;19.91;64.43;100983.19;5066093;28;1506;-59
2021/01/06 11:34:08;;;;;;;;;;;;;;;19.90;64.02;100991.41;5059780;28;1979;-58
2021/01/06 11:36:39;;;;;;;;;;;;;;;19.87;64.34;100971.03;5065498;28;1441;-59
2021/01/06 11:39:07;;;;;;;;;;;;;;;19.90;64.39;100975.28;5065183;28;1390;-59
2021/01/06 11:41:33;;;;;;;;;;;;;;;19.86;64.17;100975.56;5066637;28;1321;-59
2021/01/06 11:44:16;;;;;;;;;;;;;;;19.83;64.65;100978.50;5068019;28;1593;-59
2021/01/06 11:46:52;;;;;;;;;;;;;;;19.80;64.48;100986.84;5072239;28;1640;-58
2021/01/06 11:49:17;;;;;;;;;;;;;;;19.85;64.47;100984.56;5065962;28;1683;-60
2021/01/06 11:52:00;;;;;;;;;;;;;;;19.85;64.51;100957.72;5060608;28;1496;-58
2021/01/06 11:54:27;;;;;;;;;;;;;;;19.91;64.15;100969.75;5062447;28;1951;-58
2021/01/06 11:57:05;;;;;;;;;;;;;;;19.90;64.45;100976.13;5063870;28;1746;-58
2021/01/06 11:59:30;;;;;;;;;;;;;;;19.85;63.99;100959.56;5068581;28;1686;-58
2021/01/06 12:02:25;;;;;;;;;;;;;;;19.84;63.98;100965.94;5067516;28;1707;-58
2021/01/06 12:04:50;;;;;;;;;;;;;;;19.84;64.29;100964.09;5049590;28;1617;-58
2021/01/06 12:07:21;;;;;;;;;;;;;;;19.84;64.01;100985.56;5065227;28;1660;-59
2021/01/06 12:09:54;;;;;;;;;;;;;;;19.83;64.59;100974.97;5068217;28;1708;-58
2021/01/06 12:12:32;;;;;;;;;;;;;;;19.82;64.52;100973.28;5062828;28;1755;-59
2021/01/06 12:15:04;;;;;;;;;;;;;;;19.77;64.59;100957.56;5073926;28;1906;-58
2021/01/06 12:17:35;;;;;;;;;;;;;;;19.79;64.68;100960.97;5042029;28;1586;-58
2021/01/06 12:20:00;;;;;;;;;;;;;;;19.80;64.50;100970.72;5063295;28;1847;-58
2021/01/06 12:22:26;;;;;;;;;;;;;;;19.77;64.34;100951.38;5065061;28;1585;-58
2021/01/06 12:24:56;;;;;;;;;;;;;;;19.79;64.49;100960.97;5066568;28;1592;-58
2021/01/06 12:27:34;;;;;;;;;;;;;;;19.77;64.61;100976.34;5055646;28;983;-58
2021/01/06 12:30:05;;;;;;;;;;;;;;;19.79;64.59;100973.53;5059803;28;1495;-58
2021/01/06 12:32:35;;;;;;;;;;;;;;;19.82;64.30;100962.56;5057875;28;1793;-58
2021/01/06 12:35:21;;;;;;;;;;;;;;;19.80;63.74;100964.53;5066502;28;1890;-58
2021/01/06 12:38:15;;;;;;;;;;;;;;;19.56;64.59;100975.56;5062472;28;1912;-59
2021/01/06 12:41:06;;;;;;;;;;;;;;;18.88;59.72;100973.31;5052582;28;1658;-59
2021/01/06 12:43:31;;;;;;;;;;;;;;;18.32;59.98;100986.88;5064852;28;1452;-58
2021/01/06 12:46:07;;;;;;;;;;;;;;;18.55;63.14;100985.81;5065258;28;1446;-58
2021/01/06 12:48:44;;;;;;;;;;;;;;;18.98;62.00;100990.31;5065035;28;1433;-58
2021/01/06 12:51:15;;;;;;;;;;;;;;;19.22;60.08;100981.16;5065046;28;1718;-58
2021/01/06 12:53:42;;;;;;;;;;;;;;;19.18;58.98;100996.66;5062603;28;1897;-58
2021/01/06 12:56:10;;;;;;;;;;;;;;;19.16;59.99;100978.97;5064023;28;1795;-58
2021/01/06 12:58:39;;;;;;;;;;;;;;;19.19;61.40;100986.75;5065700;28;1718;-57
2021/01/06 13:01:07;;;;;;;;;;;;;;;19.17;60.92;100983.38;5068165;28;1635;-57
2021/01/06 13:03:32;;;;;;;;;;;;;;;19.18;61.02;100974.31;5063131;28;1664;-57
2021/01/06 13:06:12;;;;;;;;;;;;;;;19.18;61.04;100966.28;5063255;28;1747;-58
2021/01/06 13:08:37;;;;;;;;;;;;;;;19.20;61.13;100962.50;5061775;28;1814;-59